createdAt,value
2022-08-19T00:01:55.602Z,22.40
2022-08-19T00:04:26.454Z,22.40
2022-08-19T00:06:56.452Z,22.50
2022-08-19T00:09:26.359Z,22.50
2022-08-19T00:11:56.658Z,22.50
2022-08-19T00:14:26.857Z,22.50
2022-08-19T00:16:56.051Z,22.40
2022-08-19T00:19:25.148Z,22.40
2022-08-19T00:21:57.293Z,22.40
2022-08-19T00:24:25.910Z,22.40
2022-08-19T00:26:54.420Z,22.40
2022-08-19T00:29:23.772Z,22.30
2022-08-19T00:31:54.022Z,22.30
2022-08-19T00:34:22.671Z,22.20
2022-08-19T00:36:51.051Z,22.20
2022-08-19T00:39:20.711Z,22.30
2022-08-19T00:41:50.908Z,22.00
2022-08-19T00:44:22.716Z,22.10
2022-08-19T00:46:58.755Z,22.20
2022-08-19T00:49:31.765Z,22.10
2022-08-19T00:52:03.778Z,22.00
2022-08-19T00:54:34.155Z,22.00
2022-08-19T00:57:07.143Z,21.80
2022-08-19T00:59:53.489Z,21.80
2022-08-19T01:02:27.562Z,21.80
2022-08-19T01:04:56.053Z,21.80
2022-08-19T01:07:24.425Z,21.70
2022-08-19T01:09:54.315Z,21.70
2022-08-19T01:12:23.242Z,21.40
2022-08-19T01:14:52.219Z,21.10
2022-08-19T01:17:21.411Z,21.00
2022-08-19T01:19:50.345Z,21.00
2022-08-19T01:22:30.203Z,21.00
2022-08-19T01:25:03.576Z,20.90
2022-08-19T01:27:42.973Z,20.80
2022-08-19T01:30:14.530Z,20.70
2022-08-19T01:32:42.985Z,20.70
2022-08-19T01:35:13.083Z,20.70
2022-08-19T01:37:46.170Z,20.90
2022-08-19T01:40:15.973Z,21.10
2022-08-19T01:42:44.108Z,21.20
2022-08-19T01:45:12.789Z,21.20
2022-08-19T01:47:40.993Z,21.20
2022-08-19T01:50:11.698Z,21.30
2022-08-19T01:52:40.954Z,21.10
2022-08-19T01:55:12.790Z,21.00
2022-08-19T01:57:45.167Z,20.80
2022-08-19T02:00:16.527Z,20.80
2022-08-19T02:02:44.981Z,20.70
2022-08-19T02:05:14.576Z,20.60
2022-08-19T02:07:43.309Z,20.70
2022-08-19T02:10:16.679Z,20.80
2022-08-19T02:12:46.667Z,20.70
2022-08-19T02:15:15.968Z,20.60
2022-08-19T02:17:44.520Z,20.20
2022-08-19T02:20:14.167Z,20.10
2022-08-19T02:22:43.507Z,19.90
2022-08-19T02:25:12.145Z,20.00
2022-08-19T02:27:41.029Z,20.10
2022-08-19T02:30:17.358Z,19.90
2022-08-19T02:32:45.943Z,20.10
2022-08-19T02:35:14.904Z,20.00
2022-08-19T02:38:01.465Z,19.90
2022-08-19T02:40:29.764Z,19.80
2022-08-19T02:42:58.354Z,19.80
2022-08-19T02:45:27.769Z,19.80
2022-08-19T02:47:57.926Z,19.90
2022-08-19T02:50:26.473Z,20.00
2022-08-19T02:52:54.740Z,20.00
2022-08-19T02:55:22.938Z,20.00
2022-08-19T02:57:51.131Z,20.00
2022-08-19T03:00:19.798Z,20.00
2022-08-19T03:02:49.865Z,19.90
2022-08-19T03:05:18.255Z,20.00
2022-08-19T03:07:56.638Z,19.90
2022-08-19T03:10:24.851Z,19.90
2022-08-19T03:12:53.079Z,19.90
2022-08-19T03:15:21.494Z,20.00
2022-08-19T03:17:50.922Z,20.00
2022-08-19T03:20:19.231Z,20.00
2022-08-19T03:22:47.375Z,19.90
2022-08-19T03:25:16.755Z,19.90
2022-08-19T03:27:45.354Z,20.00
2022-08-19T03:30:14.906Z,20.00
2022-08-19T03:32:53.071Z,20.00
2022-08-19T03:35:25.335Z,20.20
2022-08-19T03:37:53.905Z,20.40
2022-08-19T03:40:22.158Z,20.40
2022-08-19T03:42:51.032Z,20.50
2022-08-19T03:45:20.609Z,20.30
2022-08-19T03:47:48.643Z,20.20
2022-08-19T03:50:18.946Z,20.00
2022-08-19T03:52:51.352Z,20.00
2022-08-19T03:55:19.735Z,20.00
2022-08-19T03:57:48.680Z,20.20
2022-08-19T04:00:18.524Z,20.30
2022-08-19T04:02:56.451Z,20.30
2022-08-19T04:05:29.574Z,20.40
2022-08-19T04:08:00.286Z,20.60
2022-08-19T04:10:29.644Z,20.60
2022-08-19T04:12:57.817Z,20.60
2022-08-19T04:15:25.943Z,20.60
2022-08-19T04:17:54.240Z,20.70
2022-08-19T04:20:22.271Z,20.50
2022-08-19T04:22:51.838Z,20.60
2022-08-19T04:25:20.188Z,20.60
2022-08-19T04:27:49.518Z,20.60
2022-08-19T04:30:18.699Z,20.60
2022-08-19T04:32:46.786Z,20.60
2022-08-19T04:35:16.707Z,20.70
2022-08-19T04:37:46.846Z,20.60
2022-08-19T04:40:34.293Z,20.70
2022-08-19T04:43:03.003Z,20.80
2022-08-19T04:45:39.612Z,20.90
2022-08-19T04:48:26.417Z,20.90
2022-08-19T04:50:58.957Z,21.00
2022-08-19T04:53:29.583Z,21.10
2022-08-19T04:56:00.247Z,21.20
2022-08-19T04:58:29.458Z,21.30
2022-08-19T05:00:57.666Z,21.40
2022-08-19T05:03:30.084Z,21.60
2022-08-19T05:05:59.477Z,21.70
2022-08-19T05:08:31.506Z,21.70
2022-08-19T05:11:01.227Z,21.80
2022-08-19T05:13:30.606Z,21.80
2022-08-19T05:16:00.091Z,21.90
2022-08-19T05:18:51.284Z,22.00
2022-08-19T05:21:38.886Z,22.00
2022-08-19T05:24:09.816Z,22.00
2022-08-19T05:26:40.216Z,22.10
2022-08-19T05:29:09.580Z,22.10
2022-08-19T05:31:41.700Z,22.30
2022-08-19T05:34:20.120Z,22.30
2022-08-19T05:36:48.761Z,22.40
2022-08-19T05:39:19.359Z,22.50
2022-08-19T05:41:53.703Z,22.50
2022-08-19T05:44:22.404Z,22.50
2022-08-19T05:46:53.791Z,22.60
2022-08-19T05:49:24.462Z,22.60
2022-08-19T05:51:52.616Z,22.60
2022-08-19T05:54:21.444Z,22.70
2022-08-19T05:56:52.877Z,22.80
2022-08-19T05:59:22.599Z,22.90
2022-08-19T06:01:58.046Z,23.00
2022-08-19T06:04:27.028Z,23.10
2022-08-19T06:06:55.829Z,23.20
2022-08-19T06:09:24.705Z,23.30
2022-08-19T06:11:56.837Z,23.40
2022-08-19T06:14:28.760Z,23.50
2022-08-19T06:16:57.273Z,23.60
2022-08-19T06:19:26.441Z,23.70
2022-08-19T06:21:55.282Z,23.90
2022-08-19T06:24:26.825Z,23.90
2022-08-19T06:27:00.980Z,24.10
2022-08-19T06:29:30.930Z,24.10
2022-08-19T06:32:01.476Z,24.20
2022-08-19T06:34:31.413Z,24.30
2022-08-19T06:37:02.381Z,24.40
2022-08-19T06:39:32.605Z,24.40
2022-08-19T06:42:07.205Z,24.50
2022-08-19T06:44:42.460Z,24.60
2022-08-19T06:47:23.922Z,24.70
2022-08-19T06:50:00.973Z,24.80
2022-08-19T06:52:29.781Z,24.80
2022-08-19T06:54:59.709Z,24.90
2022-08-19T06:57:33.716Z,24.90
2022-08-19T07:00:02.116Z,25.00
2022-08-19T07:02:30.545Z,25.10
2022-08-19T07:04:59.358Z,25.20
2022-08-19T07:07:27.709Z,25.40
2022-08-19T07:09:59.400Z,25.40
2022-08-19T07:12:35.643Z,25.60
2022-08-19T07:15:04.466Z,25.70
2022-08-19T07:17:34.567Z,25.90
2022-08-19T07:20:05.524Z,25.90
2022-08-19T07:22:35.377Z,26.00
2022-08-19T07:25:05.185Z,26.00
2022-08-19T07:27:34.938Z,26.10
2022-08-19T07:30:03.496Z,26.30
2022-08-19T07:32:32.543Z,26.40
2022-08-19T07:35:04.288Z,26.50
2022-08-19T07:37:33.529Z,26.50
2022-08-19T07:40:02.344Z,26.60
2022-08-19T07:42:31.103Z,26.70
2022-08-19T07:45:00.846Z,26.70
2022-08-19T07:47:58.450Z,26.80
2022-08-19T07:50:19.022Z,26.80
2022-08-19T07:52:49.146Z,26.90
2022-08-19T07:55:40.478Z,26.90
2022-08-19T07:58:09.519Z,26.90
2022-08-19T08:00:39.263Z,27.00
2022-08-19T08:03:07.466Z,27.10
2022-08-19T08:05:52.810Z,27.20
2022-08-19T08:08:37.840Z,27.10
2022-08-19T08:11:15.523Z,27.20
2022-08-19T08:13:44.003Z,27.40
2022-08-19T08:16:14.170Z,27.60
2022-08-19T08:18:50.501Z,27.60
2022-08-19T08:21:21.472Z,27.50
2022-08-19T08:23:51.053Z,27.50
2022-08-19T08:26:20.276Z,27.60
2022-08-19T08:28:49.495Z,27.70
2022-08-19T08:31:20.654Z,27.70
2022-08-19T08:33:49.118Z,27.80
2022-08-19T08:36:18.170Z,27.80
2022-08-19T08:38:47.474Z,27.80
2022-08-19T08:41:24.581Z,27.80
2022-08-19T08:43:54.432Z,27.80
2022-08-19T08:46:30.507Z,27.80
2022-08-19T08:49:06.660Z,27.90
2022-08-19T08:54:16.868Z,28.00
2022-08-19T08:56:46.678Z,28.10
2022-08-19T08:59:21.279Z,28.20
2022-08-19T09:01:50.820Z,28.10
2022-08-19T09:04:19.339Z,28.20
2022-08-19T09:06:55.516Z,28.40
2022-08-19T09:09:33.286Z,28.40
2022-08-19T09:12:11.986Z,28.50
2022-08-19T09:14:50.797Z,28.60
2022-08-19T09:17:29.224Z,28.60
2022-08-19T09:20:01.613Z,28.60
2022-08-19T09:22:30.047Z,28.50
2022-08-19T09:24:58.402Z,28.60
2022-08-19T09:27:42.493Z,28.80
2022-08-19T09:30:16.083Z,29.00
2022-08-19T09:32:46.465Z,28.90
2022-08-19T09:35:15.512Z,29.10
2022-08-19T09:37:45.021Z,29.00
2022-08-19T09:40:15.432Z,29.10
2022-08-19T09:42:50.371Z,29.20
2022-08-19T09:45:23.618Z,29.20
2022-08-19T09:47:55.130Z,29.30
2022-08-19T09:50:24.837Z,29.40
2022-08-19T09:52:57.548Z,29.40
2022-08-19T09:55:31.014Z,29.60
2022-08-19T09:58:04.062Z,29.60
2022-08-19T10:00:32.961Z,29.60
2022-08-19T10:03:02.449Z,29.50
2022-08-19T10:05:50.074Z,29.60
2022-08-19T10:08:20.762Z,29.70
2022-08-19T10:10:50.024Z,29.70
2022-08-19T10:13:22.950Z,29.90
2022-08-19T10:15:52.443Z,30.00
2022-08-19T10:18:23.110Z,30.00
2022-08-19T10:20:53.492Z,30.10
2022-08-19T10:23:22.966Z,30.10
2022-08-19T10:25:52.396Z,30.20
2022-08-19T10:28:20.463Z,30.30
2022-08-19T10:30:49.521Z,30.10
2022-08-19T10:33:39.068Z,30.20
2022-08-19T10:36:10.584Z,30.10
2022-08-19T10:38:39.033Z,30.20
2022-08-19T10:41:12.381Z,30.30
2022-08-19T10:43:40.934Z,30.40
2022-08-19T10:46:14.027Z,30.60
2022-08-19T10:48:45.256Z,30.90
2022-08-19T10:51:32.346Z,31.00
2022-08-19T10:54:01.625Z,31.30
2022-08-19T10:56:47.540Z,32.00
2022-08-19T10:59:16.508Z,31.70
2022-08-19T11:01:46.226Z,31.60
2022-08-19T11:04:14.825Z,31.80
2022-08-19T11:06:46.367Z,31.70
2022-08-19T11:09:14.803Z,31.80
2022-08-19T11:11:42.931Z,31.90
2022-08-19T11:14:13.709Z,32.00
2022-08-19T11:16:42.890Z,32.30
2022-08-19T11:19:12.778Z,32.60
2022-08-19T11:21:44.705Z,32.20
2022-08-19T11:24:18.433Z,31.70
2022-08-19T11:26:47.024Z,31.80
2022-08-19T11:29:15.657Z,31.80
2022-08-19T11:31:48.199Z,31.80
2022-08-19T11:34:20.305Z,32.10
2022-08-19T11:36:51.687Z,32.20
2022-08-19T11:39:21.887Z,32.00
2022-08-19T11:41:50.530Z,32.10
2022-08-19T11:44:18.840Z,32.10
2022-08-19T11:46:47.943Z,32.00
2022-08-19T11:49:17.717Z,31.80
2022-08-19T11:51:46.091Z,32.10
2022-08-19T11:54:16.992Z,32.40
2022-08-19T11:56:46.587Z,32.20
2022-08-19T11:59:15.081Z,32.20
2022-08-19T12:01:44.516Z,32.30
2022-08-19T12:04:13.181Z,32.20
2022-08-19T12:06:43.437Z,32.50
2022-08-19T12:09:12.729Z,32.40
2022-08-19T12:11:42.538Z,32.40
2022-08-19T12:14:15.071Z,32.70
2022-08-19T12:16:51.249Z,32.70
2022-08-19T12:19:22.508Z,33.00
2022-08-19T12:21:51.765Z,33.40
2022-08-19T12:24:24.100Z,33.30
2022-08-19T12:26:54.471Z,33.40
2022-08-19T12:29:30.630Z,33.60
2022-08-19T12:32:02.280Z,33.60
2022-08-19T12:34:33.438Z,33.80
2022-08-19T12:37:04.243Z,33.40
2022-08-19T12:39:32.760Z,33.50
2022-08-19T12:42:02.241Z,33.50
2022-08-19T12:44:32.033Z,33.90
2022-08-19T12:47:01.846Z,33.90
2022-08-19T12:49:52.765Z,33.90
2022-08-19T12:52:23.456Z,33.60
2022-08-19T12:54:53.859Z,34.10
2022-08-19T12:57:32.746Z,34.50
2022-08-19T13:00:05.679Z,34.50
2022-08-19T13:02:38.173Z,34.50
2022-08-19T13:05:09.295Z,34.70
2022-08-19T13:07:38.256Z,34.20
2022-08-19T13:10:07.670Z,33.80
2022-08-19T13:12:37.442Z,33.70
2022-08-19T13:15:11.080Z,33.60
2022-08-19T13:17:39.969Z,33.70
2022-08-19T13:20:09.755Z,34.00
2022-08-19T13:22:38.384Z,33.70
2022-08-19T13:25:07.858Z,33.80
2022-08-19T13:27:37.890Z,33.40
2022-08-19T13:30:25.577Z,33.70
2022-08-19T13:33:11.284Z,33.50
2022-08-19T13:35:39.746Z,33.60
2022-08-19T13:38:11.960Z,33.40
2022-08-19T13:40:41.453Z,33.40
2022-08-19T13:43:17.473Z,33.40
2022-08-19T13:45:52.944Z,33.30
2022-08-19T13:48:21.077Z,33.60
2022-08-19T13:50:49.181Z,33.80
2022-08-19T13:53:18.198Z,34.00
2022-08-19T13:55:46.637Z,33.90
2022-08-19T13:58:16.080Z,33.50
2022-08-19T14:00:47.170Z,33.30
2022-08-19T14:03:15.428Z,33.50
2022-08-19T14:05:43.629Z,34.20
2022-08-19T14:08:15.182Z,34.70
2022-08-19T14:10:45.371Z,34.60
2022-08-19T14:13:18.628Z,34.50
2022-08-19T14:15:48.254Z,34.30
2022-08-19T14:18:16.830Z,34.00
2022-08-19T14:20:45.772Z,33.70
2022-08-19T14:23:14.784Z,33.70
2022-08-19T14:25:43.050Z,33.90
2022-08-19T14:28:11.281Z,34.00
2022-08-19T14:30:40.836Z,34.00
2022-08-19T14:33:10.000Z,34.00
2022-08-19T14:35:38.789Z,34.10
2022-08-19T14:38:09.081Z,34.20
2022-08-19T14:40:37.346Z,34.10
2022-08-19T14:43:06.547Z,34.70
2022-08-19T14:45:38.305Z,34.80
2022-08-19T14:48:09.084Z,34.80
2022-08-19T14:50:46.994Z,34.70
2022-08-19T14:53:15.100Z,34.70
2022-08-19T14:55:44.212Z,34.70
2022-08-19T14:58:28.503Z,33.90
2022-08-19T15:00:59.217Z,34.10
2022-08-19T15:03:29.039Z,34.80
2022-08-19T15:05:58.460Z,34.90
2022-08-19T15:08:27.533Z,35.00
2022-08-19T15:10:56.143Z,34.70
2022-08-19T15:13:25.621Z,34.80
2022-08-19T15:15:53.797Z,34.80
2022-08-19T15:18:22.822Z,34.50
2022-08-19T15:20:52.979Z,35.30
2022-08-19T15:23:21.849Z,35.60
2022-08-19T15:25:53.016Z,35.70
2022-08-19T15:28:21.210Z,35.00
2022-08-19T15:30:49.282Z,34.90
2022-08-19T15:33:18.695Z,35.20
2022-08-19T15:35:46.751Z,34.80
2022-08-19T15:38:22.286Z,34.50
2022-08-19T15:40:52.691Z,34.80
2022-08-19T15:43:23.236Z,34.50
2022-08-19T15:45:51.303Z,34.50
2022-08-19T15:48:19.432Z,34.00
2022-08-19T15:50:48.070Z,33.80
2022-08-19T15:53:18.157Z,33.20
2022-08-19T15:55:48.841Z,33.50
2022-08-19T15:58:34.346Z,33.50
2022-08-19T16:01:23.887Z,33.10
2022-08-19T16:04:14.938Z,33.10
2022-08-19T16:06:46.039Z,32.90
2022-08-19T16:09:17.081Z,33.20
2022-08-19T16:11:56.502Z,33.00
2022-08-19T16:14:25.185Z,33.00
2022-08-19T16:16:55.587Z,33.00
2022-08-19T16:19:24.947Z,33.00
2022-08-19T16:21:55.382Z,33.10
2022-08-19T16:24:28.666Z,32.80
2022-08-19T16:26:57.911Z,32.40
2022-08-19T16:29:33.711Z,32.50
2022-08-19T16:32:02.991Z,32.40
2022-08-19T16:34:35.213Z,32.60
2022-08-19T16:37:06.078Z,32.50
2022-08-19T16:39:35.610Z,32.60
2022-08-19T16:42:05.308Z,32.60
2022-08-19T16:44:35.880Z,32.60
2022-08-19T16:47:04.500Z,32.60
2022-08-19T16:49:54.103Z,32.30
2022-08-19T16:52:21.478Z,32.30
2022-08-19T16:54:50.900Z,32.00
2022-08-19T16:57:19.498Z,31.60
2022-08-19T16:59:48.928Z,31.50
2022-08-19T17:02:18.229Z,31.30
2022-08-19T17:04:57.283Z,31.10
2022-08-19T17:07:26.753Z,31.10
2022-08-19T17:09:57.135Z,30.90
2022-08-19T17:12:30.277Z,30.70
2022-08-19T17:14:59.377Z,30.60
2022-08-19T17:17:29.267Z,30.50
2022-08-19T17:19:57.853Z,30.30
2022-08-19T17:22:25.952Z,30.20
2022-08-19T17:24:56.091Z,30.00
2022-08-19T17:27:26.266Z,30.00
2022-08-19T17:29:54.361Z,29.90
2022-08-19T17:32:24.889Z,29.70
2022-08-19T17:34:54.175Z,29.60
2022-08-19T17:37:22.749Z,29.50
2022-08-19T17:39:50.844Z,29.30
2022-08-19T17:42:20.535Z,29.20
2022-08-19T17:44:50.842Z,29.10
2022-08-19T17:47:21.103Z,29.00
2022-08-19T17:49:49.255Z,28.90
2022-08-19T17:52:17.343Z,28.80
2022-08-19T17:54:45.578Z,28.70
2022-08-19T17:57:14.131Z,28.70
2022-08-19T17:59:43.574Z,28.50
2022-08-19T18:02:12.924Z,28.50
2022-08-19T18:04:45.546Z,28.40
2022-08-19T18:07:21.406Z,28.30
2022-08-19T18:09:52.052Z,28.30
2022-08-19T18:12:26.582Z,28.20
2022-08-19T18:14:56.081Z,28.20
2022-08-19T18:17:26.002Z,28.10
2022-08-19T18:19:54.051Z,28.00
2022-08-19T18:22:26.573Z,27.90
2022-08-19T18:24:57.566Z,27.90
2022-08-19T18:27:27.120Z,27.80
2022-08-19T18:29:59.444Z,27.70
2022-08-19T18:32:29.346Z,27.60
2022-08-19T18:34:57.434Z,27.60
2022-08-19T18:37:27.094Z,27.50
2022-08-19T18:40:13.310Z,27.50
2022-08-19T18:43:01.621Z,27.40
2022-08-19T18:45:49.270Z,27.50
2022-08-19T18:48:35.159Z,27.30
2022-08-19T18:51:03.979Z,27.20
2022-08-19T18:53:34.351Z,27.10
2022-08-19T18:56:02.501Z,27.10
2022-08-19T18:58:34.717Z,27.10
2022-08-19T19:01:10.858Z,27.00
2022-08-19T19:03:45.279Z,27.00
2022-08-19T19:06:14.450Z,27.00
2022-08-19T19:08:42.566Z,26.90
2022-08-19T19:11:12.031Z,26.90
2022-08-19T19:13:40.899Z,26.80
2022-08-19T19:16:12.493Z,26.70
2022-08-19T19:18:40.526Z,26.70
2022-08-19T19:21:09.424Z,26.70
2022-08-19T19:23:40.748Z,26.70
2022-08-19T19:26:10.554Z,26.60
2022-08-19T19:28:43.497Z,26.50
2022-08-19T19:31:15.201Z,26.40
2022-08-19T19:33:44.678Z,26.40
2022-08-19T19:36:13.373Z,26.40
2022-08-19T19:38:48.316Z,26.40
2022-08-19T19:41:19.902Z,26.30
2022-08-19T19:43:56.650Z,26.20
2022-08-19T19:46:34.500Z,26.20
2022-08-19T19:49:02.955Z,26.10
2022-08-19T19:51:32.581Z,26.10
2022-08-19T19:54:06.416Z,26.10
2022-08-19T19:56:35.086Z,26.00
2022-08-19T19:59:04.136Z,25.90
2022-08-19T20:01:33.700Z,25.90
2022-08-19T20:04:02.541Z,25.80
2022-08-19T20:06:31.382Z,25.80
2022-08-19T20:09:10.940Z,25.80
2022-08-19T20:11:41.589Z,25.70
2022-08-19T20:14:12.560Z,25.70
2022-08-19T20:16:44.056Z,25.70
2022-08-19T20:19:13.604Z,25.60
2022-08-19T20:21:43.607Z,25.60
2022-08-19T20:24:15.024Z,25.60
2022-08-19T20:26:44.237Z,25.60
2022-08-19T20:29:39.391Z,25.50
2022-08-19T20:32:05.665Z,25.40
2022-08-19T20:34:33.838Z,25.40
2022-08-19T20:37:01.976Z,25.40
2022-08-19T20:39:30.033Z,25.40
2022-08-19T20:41:58.365Z,25.30
2022-08-19T20:44:26.410Z,25.30
2022-08-19T20:46:56.892Z,25.30
2022-08-19T20:49:29.404Z,25.20
2022-08-19T20:51:58.457Z,25.20
2022-08-19T20:54:27.169Z,25.20
2022-08-19T20:56:55.949Z,25.10
2022-08-19T20:59:25.874Z,25.10
2022-08-19T21:01:54.645Z,25.10
2022-08-19T21:04:23.164Z,25.10
2022-08-19T21:06:52.664Z,25.10
2022-08-19T21:09:20.772Z,25.10
2022-08-19T21:11:49.315Z,25.10
2022-08-19T21:14:17.864Z,25.00
2022-08-19T21:16:46.250Z,25.00
2022-08-19T21:19:14.580Z,25.10
2022-08-19T21:21:42.665Z,25.10
2022-08-19T21:24:12.095Z,25.10
2022-08-19T21:26:40.435Z,25.10
2022-08-19T21:29:08.477Z,25.20
2022-08-19T21:31:36.566Z,25.20
2022-08-19T21:34:05.367Z,25.20
2022-08-19T21:36:33.435Z,25.20
2022-08-19T21:39:01.547Z,25.20
2022-08-19T21:41:30.972Z,25.20
2022-08-19T21:43:59.050Z,25.20
2022-08-19T21:46:27.268Z,25.20
2022-08-19T21:48:55.350Z,25.10
2022-08-19T21:51:23.421Z,25.10
2022-08-19T21:53:52.924Z,25.10
2022-08-19T21:56:21.164Z,25.10
2022-08-19T21:58:50.593Z,25.10
2022-08-19T22:01:18.712Z,25.10
2022-08-19T22:03:46.851Z,25.10
2022-08-19T22:06:14.997Z,25.10
2022-08-19T22:08:44.740Z,25.00
2022-08-19T22:11:13.153Z,25.10
2022-08-19T22:13:41.829Z,25.00
2022-08-19T22:16:14.025Z,25.00
2022-08-19T22:18:42.158Z,25.00
2022-08-19T22:21:12.169Z,25.00
2022-08-19T22:23:41.839Z,25.00
2022-08-19T22:26:09.972Z,24.90
2022-08-19T22:28:38.213Z,24.90
2022-08-19T22:31:08.228Z,24.80
2022-08-19T22:33:39.028Z,24.90
2022-08-19T22:36:08.581Z,24.90
2022-08-19T22:38:37.398Z,24.70
2022-08-19T22:41:07.844Z,24.50
2022-08-19T22:43:37.537Z,24.40
2022-08-19T22:46:16.793Z,24.40
2022-08-19T22:48:47.841Z,24.40
2022-08-19T22:51:42.184Z,24.40
2022-08-19T22:54:10.618Z,24.30
2022-08-19T22:56:39.921Z,24.40
2022-08-19T22:59:08.611Z,24.40
2022-08-19T23:01:37.026Z,24.50
2022-08-19T23:04:06.691Z,24.50
2022-08-19T23:06:37.273Z,24.50
2022-08-19T23:09:09.379Z,24.50
2022-08-19T23:11:41.890Z,24.60
2022-08-19T23:14:11.191Z,24.60
2022-08-19T23:16:39.528Z,24.60
2022-08-19T23:19:11.838Z,24.50
2022-08-19T23:21:40.297Z,24.50
2022-08-19T23:24:08.853Z,24.50
2022-08-19T23:26:37.205Z,24.60
2022-08-19T23:29:24.024Z,24.60
2022-08-19T23:31:52.314Z,24.50
2022-08-19T23:34:21.748Z,24.50
2022-08-19T23:36:50.489Z,24.50
2022-08-19T23:39:19.308Z,24.40
2022-08-19T23:41:47.549Z,24.40
2022-08-19T23:44:15.635Z,24.40
2022-08-19T23:46:54.409Z,24.40
2022-08-19T23:49:25.677Z,24.30
2022-08-19T23:51:55.717Z,24.30
2022-08-19T23:54:34.210Z,24.30
2022-08-19T23:57:13.459Z,24.20
2022-08-19T23:59:45.181Z,24.20
